createdAt,value
2017-09-02T00:00:23.701Z,1013.78
2017-09-02T00:01:04.227Z,1013.83
2017-09-02T00:01:44.789Z,1013.82
2017-09-02T00:02:25.296Z,1013.81
2017-09-02T00:03:05.834Z,1013.81
2017-09-02T00:03:46.370Z,1013.81
2017-09-02T00:04:26.900Z,1013.82
2017-09-02T00:05:07.436Z,1013.78
2017-09-02T00:05:47.956Z,1013.76
2017-09-02T00:06:28.491Z,1013.77
2017-09-02T00:07:09.027Z,1013.8
2017-09-02T00:07:49.569Z,1013.79
2017-09-02T00:08:30.093Z,1013.78
2017-09-02T00:09:10.627Z,1013.79
2017-09-02T00:09:51.182Z,1013.73
2017-09-02T00:10:31.699Z,1013.76
2017-09-02T00:11:12.251Z,1013.71
2017-09-02T00:11:52.771Z,1013.71
2017-09-02T00:12:33.300Z,1013.71
2017-09-02T00:13:13.832Z,1013.72
2017-09-02T00:13:54.363Z,1013.72
2017-09-02T00:14:34.901Z,1013.7
2017-09-02T00:15:15.441Z,1013.72
2017-09-02T00:15:55.988Z,1013.68
2017-09-02T00:16:36.514Z,1013.66
2017-09-02T00:17:17.045Z,1013.67
2017-09-02T00:17:57.578Z,1013.67
2017-09-02T00:18:38.119Z,1013.66
2017-09-02T00:19:18.645Z,1013.65
2017-09-02T00:19:59.173Z,1013.65
2017-09-02T00:20:39.710Z,1013.64
2017-09-02T00:21:20.237Z,1013.64
2017-09-02T00:22:00.773Z,1013.62
2017-09-02T00:22:41.313Z,1013.64
2017-09-02T00:23:21.849Z,1013.62
2017-09-02T00:24:02.384Z,1013.64
2017-09-02T00:24:42.918Z,1013.64
2017-09-02T00:25:23.457Z,1013.58
2017-09-02T00:26:03.992Z,1013.61
2017-09-02T00:26:44.531Z,1013.59
2017-09-02T00:27:25.073Z,1013.62
2017-09-02T00:28:05.602Z,1013.62
2017-09-02T00:28:46.142Z,1013.64
2017-09-02T00:29:26.680Z,1013.65
2017-09-02T00:30:07.217Z,1013.63
2017-09-02T00:30:47.745Z,1013.64
2017-09-02T00:31:28.286Z,1013.66
2017-09-02T00:32:08.831Z,1013.67
2017-09-02T00:32:49.355Z,1013.66
2017-09-02T00:33:29.913Z,1013.64
2017-09-02T00:34:10.449Z,1013.66
2017-09-02T00:34:50.985Z,1013.64
2017-09-02T00:35:31.507Z,1013.64
2017-09-02T00:36:12.074Z,1013.66
2017-09-02T00:36:52.614Z,1013.69
2017-09-02T00:37:33.149Z,1013.67
2017-09-02T00:38:13.679Z,1013.69
2017-09-02T00:38:54.213Z,1013.66
2017-09-02T00:39:34.750Z,1013.67
2017-09-02T00:40:15.279Z,1013.67
2017-09-02T00:40:55.823Z,1013.67
2017-09-02T00:41:36.360Z,1013.66
2017-09-02T00:42:16.894Z,1013.65
2017-09-02T00:42:57.426Z,1013.68
2017-09-02T00:43:37.958Z,1013.65
2017-09-02T00:44:18.493Z,1013.68
2017-09-02T00:44:59.031Z,1013.66
2017-09-02T00:45:39.561Z,1013.66
2017-09-02T00:46:20.090Z,1013.68
2017-09-02T00:47:00.676Z,1013.69
2017-09-02T00:47:41.213Z,1013.65
2017-09-02T00:48:21.747Z,1013.68
2017-09-02T00:49:02.290Z,1013.68
2017-09-02T00:49:42.817Z,1013.68
2017-09-02T00:50:23.358Z,1013.64
2017-09-02T00:51:03.900Z,1013.63
2017-09-02T00:51:44.438Z,1013.64
2017-09-02T00:52:24.965Z,1013.62
2017-09-02T00:53:05.494Z,1013.61
2017-09-02T00:53:46.032Z,1013.63
2017-09-02T00:54:26.576Z,1013.64
2017-09-02T00:55:07.111Z,1013.61
2017-09-02T00:55:47.651Z,1013.58
2017-09-02T00:56:28.181Z,1013.6
2017-09-02T00:57:08.718Z,1013.61
2017-09-02T00:57:49.261Z,1013.59
2017-09-02T00:58:29.801Z,1013.58
2017-09-02T00:59:10.337Z,1013.62
2017-09-02T00:59:50.879Z,1013.6
2017-09-02T01:00:31.408Z,1013.59
2017-09-02T01:01:11.940Z,1013.6
2017-09-02T01:01:52.503Z,1013.62
2017-09-02T01:02:33.024Z,1013.6
2017-09-02T01:03:13.555Z,1013.6
2017-09-02T01:03:54.091Z,1013.61
2017-09-02T01:04:34.635Z,1013.61
2017-09-02T01:05:15.173Z,1013.64
2017-09-02T01:05:55.714Z,1013.62
2017-09-02T01:06:36.243Z,1013.61
2017-09-02T01:07:16.775Z,1013.6
2017-09-02T01:07:57.313Z,1013.6
2017-09-02T01:08:37.850Z,1013.62
2017-09-02T01:09:18.389Z,1013.57
2017-09-02T01:09:58.930Z,1013.57
2017-09-02T01:10:39.478Z,1013.57
2017-09-02T01:11:20.017Z,1013.56
2017-09-02T01:12:00.558Z,1013.54
2017-09-02T01:12:41.083Z,1013.57
2017-09-02T01:13:21.668Z,1013.54
2017-09-02T01:14:02.206Z,1013.53
2017-09-02T01:14:42.737Z,1013.51
2017-09-02T01:15:23.269Z,1013.5
2017-09-02T01:16:03.819Z,1013.53
2017-09-02T01:16:44.332Z,1013.51
2017-09-02T01:17:24.880Z,1013.51
2017-09-02T01:18:05.415Z,1013.53
2017-09-02T01:18:45.959Z,1013.53
2017-09-02T01:19:26.490Z,1013.55
2017-09-02T01:20:07.031Z,1013.54
2017-09-02T01:20:47.558Z,1013.52
2017-09-02T01:21:28.088Z,1013.53
2017-09-02T01:22:08.629Z,1013.58
2017-09-02T01:22:49.172Z,1013.58
2017-09-02T01:23:29.701Z,1013.58
2017-09-02T01:24:10.229Z,1013.66
2017-09-02T01:24:50.765Z,1013.62
2017-09-02T01:25:31.309Z,1013.64
2017-09-02T01:26:11.853Z,1013.64
2017-09-02T01:26:52.389Z,1013.64
2017-09-02T01:27:32.933Z,1013.61
2017-09-02T01:28:13.472Z,1013.65
2017-09-02T01:28:54.001Z,1013.66
2017-09-02T01:29:34.546Z,1013.68
2017-09-02T01:30:15.081Z,1013.65
2017-09-02T01:30:55.614Z,1013.64
2017-09-02T01:31:36.157Z,1013.67
2017-09-02T01:32:16.699Z,1013.63
2017-09-02T01:32:57.235Z,1013.66
2017-09-02T01:33:37.837Z,1013.64
2017-09-02T01:34:18.375Z,1013.67
2017-09-02T01:34:58.911Z,1013.67
2017-09-02T01:35:39.451Z,1013.68
2017-09-02T01:36:19.984Z,1013.68
2017-09-02T01:37:00.522Z,1013.71
2017-09-02T01:37:41.057Z,1013.69
2017-09-02T01:38:21.588Z,1013.68
2017-09-02T01:39:02.126Z,1013.7
2017-09-02T01:39:42.665Z,1013.72
2017-09-02T01:40:23.206Z,1013.69
2017-09-02T01:41:03.745Z,1013.69
2017-09-02T01:41:44.262Z,1013.66
2017-09-02T01:42:24.789Z,1013.69
2017-09-02T01:43:05.330Z,1013.67
2017-09-02T01:43:45.869Z,1013.66
2017-09-02T01:44:26.441Z,1013.73
2017-09-02T01:45:06.974Z,1013.68
2017-09-02T01:45:47.516Z,1013.69
2017-09-02T01:46:28.054Z,1013.67
2017-09-02T01:47:08.593Z,1013.65
2017-09-02T01:47:49.131Z,1013.65
2017-09-02T01:48:29.668Z,1013.67
2017-09-02T01:49:10.210Z,1013.63
2017-09-02T01:49:50.739Z,1013.63
2017-09-02T01:50:31.313Z,1013.61
2017-09-02T01:51:11.848Z,1013.62
2017-09-02T01:51:52.372Z,1013.64
2017-09-02T01:52:32.917Z,1013.63
2017-09-02T01:53:13.457Z,1013.65
2017-09-02T01:53:54.018Z,1013.64
2017-09-02T01:54:34.562Z,1013.65
2017-09-02T01:55:15.101Z,1013.68
2017-09-02T01:55:55.624Z,1013.65
2017-09-02T01:56:36.157Z,1013.66
2017-09-02T01:57:16.697Z,1013.65
2017-09-02T01:57:57.235Z,1013.62
2017-09-02T01:58:37.762Z,1013.63
2017-09-02T01:59:18.293Z,1013.64
2017-09-02T01:59:58.825Z,1013.61
2017-09-02T02:00:39.358Z,1013.62
2017-09-02T02:01:19.893Z,1013.63
2017-09-02T02:02:00.440Z,1013.63
2017-09-02T02:02:40.978Z,1013.63
2017-09-02T02:03:21.514Z,1013.59
2017-09-02T02:04:02.034Z,1013.61
2017-09-02T02:04:42.567Z,1013.62
2017-09-02T02:05:23.100Z,1013.62
2017-09-02T02:06:03.640Z,1013.58
2017-09-02T02:06:44.180Z,1013.6
2017-09-02T02:07:24.689Z,1013.57
2017-09-02T02:08:05.217Z,1013.56
2017-09-02T02:08:45.766Z,1013.56
2017-09-02T02:09:26.306Z,1013.6
2017-09-02T02:10:06.843Z,1013.58
2017-09-02T02:10:47.378Z,1013.57
2017-09-02T02:11:27.908Z,1013.59
2017-09-02T02:12:08.440Z,1013.57
2017-09-02T02:12:48.974Z,1013.59
2017-09-02T02:13:29.501Z,1013.59
2017-09-02T02:14:10.031Z,1013.59
2017-09-02T02:14:50.573Z,1013.59
2017-09-02T02:15:31.113Z,1013.61
2017-09-02T02:16:11.636Z,1013.57
2017-09-02T02:16:52.177Z,1013.61
2017-09-02T02:17:32.699Z,1013.61
2017-09-02T02:18:13.235Z,1013.6
2017-09-02T02:18:53.777Z,1013.6
2017-09-02T02:19:34.312Z,1013.63
2017-09-02T02:20:14.843Z,1013.63
2017-09-02T02:20:55.384Z,1013.6
2017-09-02T02:21:35.914Z,1013.61
2017-09-02T02:22:16.450Z,1013.62
2017-09-02T02:22:56.988Z,1013.61
2017-09-02T02:23:37.534Z,1013.6
2017-09-02T02:24:18.108Z,1013.55
2017-09-02T02:24:58.648Z,1013.56
2017-09-02T02:25:39.189Z,1013.54
2017-09-02T02:26:19.706Z,1013.52
2017-09-02T02:27:00.249Z,1013.5
2017-09-02T02:27:40.781Z,1013.51
2017-09-02T02:28:21.307Z,1013.51
2017-09-02T02:29:01.846Z,1013.47
2017-09-02T02:29:42.380Z,1013.48
2017-09-02T02:30:22.902Z,1013.47
2017-09-02T02:31:03.431Z,1013.46
2017-09-02T02:31:43.970Z,1013.47
2017-09-02T02:32:24.512Z,1013.45
2017-09-02T02:33:05.051Z,1013.49
2017-09-02T02:33:45.588Z,1013.46
2017-09-02T02:34:26.133Z,1013.47
2017-09-02T02:35:06.666Z,1013.44
2017-09-02T02:35:47.202Z,1013.45
2017-09-02T02:36:27.736Z,1013.49
2017-09-02T02:37:08.269Z,1013.49
2017-09-02T02:37:48.808Z,1013.47
2017-09-02T02:38:29.350Z,1013.47
2017-09-02T02:39:09.888Z,1013.43
2017-09-02T02:39:50.406Z,1013.44
2017-09-02T02:40:30.943Z,1013.43
2017-09-02T02:41:11.480Z,1013.42
2017-09-02T02:41:52.018Z,1013.44
2017-09-02T02:42:32.554Z,1013.41
2017-09-02T02:43:13.097Z,1013.44
2017-09-02T02:43:53.617Z,1013.41
2017-09-02T02:44:34.150Z,1013.41
2017-09-02T02:45:14.697Z,1013.39
2017-09-02T02:45:55.236Z,1013.42
2017-09-02T02:46:35.774Z,1013.4
2017-09-02T02:47:16.309Z,1013.4
2017-09-02T02:47:56.863Z,1013.42
2017-09-02T02:48:37.380Z,1013.42
2017-09-02T02:49:17.914Z,1013.41
2017-09-02T02:49:58.450Z,1013.4
2017-09-02T02:50:38.986Z,1013.44
2017-09-02T02:51:19.532Z,1013.43
2017-09-02T02:52:00.062Z,1013.44
2017-09-02T02:52:40.587Z,1013.43
2017-09-02T02:53:21.120Z,1013.43
2017-09-02T02:54:01.653Z,1013.41
2017-09-02T02:54:42.181Z,1013.46
2017-09-02T02:55:22.721Z,1013.44
2017-09-02T02:56:03.264Z,1013.45
2017-09-02T02:56:43.812Z,1013.44
2017-09-02T02:57:24.339Z,1013.42
2017-09-02T02:58:04.897Z,1013.44
2017-09-02T02:58:45.426Z,1013.46
2017-09-02T02:59:25.959Z,1013.44
2017-09-02T03:00:06.501Z,1013.44
2017-09-02T03:00:47.027Z,1013.45
2017-09-02T03:01:27.557Z,1013.42
2017-09-02T03:02:08.089Z,1013.41
2017-09-02T03:02:48.611Z,1013.41
2017-09-02T03:03:29.160Z,1013.41
2017-09-02T03:04:09.690Z,1013.42
2017-09-02T03:04:50.230Z,1013.42
2017-09-02T03:05:30.860Z,1013.42
2017-09-02T03:06:11.387Z,1013.46
2017-09-02T03:06:51.901Z,1013.43
2017-09-02T03:07:32.441Z,1013.43
2017-09-02T03:08:12.979Z,1013.4
2017-09-02T03:08:53.516Z,1013.38
2017-09-02T03:09:34.036Z,1013.41
2017-09-02T03:10:14.566Z,1013.42
2017-09-02T03:10:55.109Z,1013.39
2017-09-02T03:11:35.644Z,1013.38
2017-09-02T03:12:16.238Z,1013.4
2017-09-02T03:12:56.769Z,1013.36
2017-09-02T03:13:37.311Z,1013.39
2017-09-02T03:14:17.851Z,1013.32
2017-09-02T03:14:58.381Z,1013.35
2017-09-02T03:15:38.916Z,1013.32
2017-09-02T03:16:19.446Z,1013.33
2017-09-02T03:16:59.981Z,1013.36
2017-09-02T03:17:40.521Z,1013.33
2017-09-02T03:18:21.052Z,1013.29
2017-09-02T03:19:01.589Z,1013.3
2017-09-02T03:19:42.133Z,1013.31
2017-09-02T03:20:22.674Z,1013.32
2017-09-02T03:21:03.213Z,1013.31
2017-09-02T03:21:43.746Z,1013.3
2017-09-02T03:22:24.276Z,1013.3
2017-09-02T03:23:04.821Z,1013.27
2017-09-02T03:23:45.355Z,1013.33
2017-09-02T03:24:25.894Z,1013.33
2017-09-02T03:25:06.430Z,1013.32
2017-09-02T03:25:46.950Z,1013.3
2017-09-02T03:26:27.486Z,1013.31
2017-09-02T03:27:08.014Z,1013.32
2017-09-02T03:27:48.553Z,1013.34
2017-09-02T03:28:29.080Z,1013.3
2017-09-02T03:29:09.606Z,1013.29
2017-09-02T03:29:50.146Z,1013.29
2017-09-02T03:30:30.701Z,1013.33
2017-09-02T03:31:11.215Z,1013.34
2017-09-02T03:31:51.753Z,1013.31
2017-09-02T03:32:32.293Z,1013.32
2017-09-02T03:33:12.834Z,1013.33
2017-09-02T03:33:53.372Z,1013.33
2017-09-02T03:34:33.898Z,1013.36
2017-09-02T03:35:14.441Z,1013.32
2017-09-02T03:35:54.966Z,1013.32
2017-09-02T03:36:35.507Z,1013.34
2017-09-02T03:37:16.045Z,1013.35
2017-09-02T03:37:56.570Z,1013.32
2017-09-02T03:38:37.112Z,1013.32
2017-09-02T03:39:17.643Z,1013.32
2017-09-02T03:39:58.173Z,1013.3
2017-09-02T03:40:38.709Z,1013.3
2017-09-02T03:41:19.249Z,1013.28
2017-09-02T03:41:59.790Z,1013.29
2017-09-02T03:42:40.317Z,1013.27
2017-09-02T03:43:20.848Z,1013.32
2017-09-02T03:44:01.383Z,1013.28
2017-09-02T03:44:41.920Z,1013.26
2017-09-02T03:45:22.448Z,1013.28
2017-09-02T03:46:02.999Z,1013.26
2017-09-02T03:46:43.580Z,1013.29
2017-09-02T03:47:24.105Z,1013.32
2017-09-02T03:48:04.640Z,1013.32
2017-09-02T03:48:45.176Z,1013.32
2017-09-02T03:49:25.710Z,1013.31
2017-09-02T03:50:06.248Z,1013.31
2017-09-02T03:50:46.782Z,1013.31
2017-09-02T03:51:27.309Z,1013.29
2017-09-02T03:52:07.849Z,1013.33
2017-09-02T03:52:48.395Z,1013.31
2017-09-02T03:53:28.925Z,1013.33
2017-09-02T03:54:09.458Z,1013.32
2017-09-02T03:54:49.995Z,1013.3
2017-09-02T03:55:30.531Z,1013.34
2017-09-02T03:56:11.073Z,1013.36
2017-09-02T03:56:51.610Z,1013.33
2017-09-02T03:57:32.127Z,1013.33
2017-09-02T03:58:12.657Z,1013.32
2017-09-02T03:58:53.195Z,1013.37
2017-09-02T03:59:33.758Z,1013.38
2017-09-02T04:00:14.288Z,1013.39
2017-09-02T04:00:54.826Z,1013.42
2017-09-02T04:01:35.332Z,1013.42
2017-09-02T04:02:15.877Z,1013.4
2017-09-02T04:02:56.485Z,1013.42
2017-09-02T04:03:37.019Z,1013.44
2017-09-02T04:04:17.559Z,1013.44
2017-09-02T04:04:58.085Z,1013.4
2017-09-02T04:05:38.619Z,1013.43
2017-09-02T04:06:19.167Z,1013.36
2017-09-02T04:06:59.701Z,1013.4
2017-09-02T04:07:40.256Z,1013.4
2017-09-02T04:08:21.010Z,1013.36
2017-09-02T04:09:01.552Z,1013.38
2017-09-02T04:09:42.080Z,1013.37
2017-09-02T04:10:22.622Z,1013.38
2017-09-02T04:11:03.153Z,1013.35
2017-09-02T04:11:43.692Z,1013.4
2017-09-02T04:12:24.229Z,1013.37
2017-09-02T04:13:04.780Z,1013.32
2017-09-02T04:13:45.306Z,1013.33
2017-09-02T04:14:25.842Z,1013.34
2017-09-02T04:15:06.370Z,1013.34
2017-09-02T04:15:46.881Z,1013.36
2017-09-02T04:16:27.415Z,1013.33
2017-09-02T04:17:07.962Z,1013.33
2017-09-02T04:17:48.490Z,1013.33
2017-09-02T04:18:29.031Z,1013.34
2017-09-02T04:19:09.550Z,1013.35
2017-09-02T04:19:50.086Z,1013.35
2017-09-02T04:20:30.617Z,1013.38
2017-09-02T04:21:11.160Z,1013.37
2017-09-02T04:21:51.700Z,1013.41
2017-09-02T04:22:32.237Z,1013.41
2017-09-02T04:23:14.324Z,1013.42
2017-09-02T04:23:54.858Z,1013.37
2017-09-02T04:24:35.403Z,1013.37
2017-09-02T04:25:15.924Z,1013.34
2017-09-02T04:25:56.456Z,1013.36
2017-09-02T04:26:36.994Z,1013.33
2017-09-02T04:27:17.524Z,1013.33
2017-09-02T04:27:58.052Z,1013.3
2017-09-02T04:28:38.561Z,1013.33
2017-09-02T04:29:19.080Z,1013.28
2017-09-02T04:29:59.620Z,1013.3
2017-09-02T04:30:40.140Z,1013.28
2017-09-02T04:31:20.674Z,1013.27
2017-09-02T04:32:01.209Z,1013.29
2017-09-02T04:32:41.742Z,1013.31
2017-09-02T04:33:22.281Z,1013.32
2017-09-02T04:34:02.819Z,1013.31
2017-09-02T04:34:43.348Z,1013.27
2017-09-02T04:35:23.890Z,1013.26
2017-09-02T04:36:04.408Z,1013.31
2017-09-02T04:36:44.944Z,1013.29
2017-09-02T04:37:25.472Z,1013.29
2017-09-02T04:38:06.009Z,1013.27
2017-09-02T04:38:46.542Z,1013.27
2017-09-02T04:39:27.082Z,1013.3
2017-09-02T04:40:07.610Z,1013.29
2017-09-02T04:40:48.139Z,1013.27
2017-09-02T04:41:28.675Z,1013.27
2017-09-02T04:42:09.264Z,1013.29
2017-09-02T04:42:49.789Z,1013.32
2017-09-02T04:43:30.328Z,1013.31
2017-09-02T04:44:10.862Z,1013.33
2017-09-02T04:44:51.385Z,1013.32
2017-09-02T04:45:31.920Z,1013.34
2017-09-02T04:46:12.445Z,1013.35
2017-09-02T04:46:53.050Z,1013.31
2017-09-02T04:47:33.587Z,1013.34
2017-09-02T04:48:14.124Z,1013.35
2017-09-02T04:48:54.657Z,1013.33
2017-09-02T04:49:35.196Z,1013.35
2017-09-02T04:50:15.715Z,1013.31
2017-09-02T04:50:56.244Z,1013.33
2017-09-02T04:51:36.791Z,1013.32
2017-09-02T04:52:17.321Z,1013.34
2017-09-02T04:52:57.856Z,1013.31
2017-09-02T04:53:38.400Z,1013.32
2017-09-02T04:54:18.940Z,1013.31
2017-09-02T04:54:59.459Z,1013.33
2017-09-02T04:55:39.981Z,1013.3
2017-09-02T04:56:20.518Z,1013.34
2017-09-02T04:57:01.053Z,1013.32
2017-09-02T04:57:41.626Z,1013.32
2017-09-02T04:58:22.184Z,1013.31
2017-09-02T04:59:02.716Z,1013.32
2017-09-02T04:59:43.273Z,1013.32
2017-09-02T05:00:23.804Z,1013.35
2017-09-02T05:01:04.321Z,1013.35
2017-09-02T05:01:44.850Z,1013.35
2017-09-02T05:02:25.375Z,1013.34
2017-09-02T05:03:05.921Z,1013.36
2017-09-02T05:03:46.448Z,1013.38
2017-09-02T05:04:26.973Z,1013.39
2017-09-02T05:05:07.496Z,1013.37
2017-09-02T05:05:48.024Z,1013.39
2017-09-02T05:06:28.560Z,1013.4
2017-09-02T05:07:09.097Z,1013.39
2017-09-02T05:07:49.620Z,1013.39
2017-09-02T05:08:30.178Z,1013.38
2017-09-02T05:09:10.707Z,1013.38
2017-09-02T05:09:51.239Z,1013.4
2017-09-02T05:10:31.787Z,1013.43
2017-09-02T05:11:12.324Z,1013.4
2017-09-02T05:11:52.863Z,1013.39
2017-09-02T05:12:33.388Z,1013.4
2017-09-02T05:13:13.916Z,1013.42
2017-09-02T05:13:54.463Z,1013.41
2017-09-02T05:14:34.995Z,1013.4
2017-09-02T05:15:15.533Z,1013.43
2017-09-02T05:15:56.068Z,1013.42
2017-09-02T05:16:36.610Z,1013.41
2017-09-02T05:17:17.134Z,1013.42
2017-09-02T05:17:57.677Z,1013.41
2017-09-02T05:18:38.216Z,1013.42
2017-09-02T05:19:18.747Z,1013.42
2017-09-02T05:19:59.284Z,1013.41
2017-09-02T05:20:39.811Z,1013.46
2017-09-02T05:21:20.363Z,1013.44
2017-09-02T05:22:00.906Z,1013.39
2017-09-02T05:22:41.446Z,1013.43
2017-09-02T05:23:21.968Z,1013.48
2017-09-02T05:24:02.506Z,1013.44
2017-09-02T05:24:43.047Z,1013.46
2017-09-02T05:25:23.590Z,1013.44
2017-09-02T05:26:04.146Z,1013.45
2017-09-02T05:26:44.656Z,1013.44
2017-09-02T05:27:25.182Z,1013.47
2017-09-02T05:28:05.721Z,1013.47
2017-09-02T05:28:46.264Z,1013.45
2017-09-02T05:29:26.799Z,1013.43
2017-09-02T05:30:07.346Z,1013.43
2017-09-02T05:30:47.883Z,1013.43
2017-09-02T05:31:28.423Z,1013.44
2017-09-02T05:32:08.982Z,1013.42
2017-09-02T05:32:49.533Z,1013.44
2017-09-02T05:33:30.073Z,1013.48
2017-09-02T05:34:10.601Z,1013.46
2017-09-02T05:34:51.141Z,1013.42
2017-09-02T05:35:31.682Z,1013.44
2017-09-02T05:36:12.214Z,1013.44
2017-09-02T05:36:52.760Z,1013.45
2017-09-02T05:37:33.291Z,1013.47
2017-09-02T05:38:13.831Z,1013.44
2017-09-02T05:38:54.352Z,1013.47
2017-09-02T05:39:34.884Z,1013.46
2017-09-02T05:40:15.417Z,1013.43
2017-09-02T05:40:55.952Z,1013.44
2017-09-02T05:41:36.492Z,1013.43
2017-09-02T05:42:17.030Z,1013.47
2017-09-02T05:42:57.559Z,1013.47
2017-09-02T05:43:38.103Z,1013.47
2017-09-02T05:44:18.630Z,1013.47
2017-09-02T05:44:59.167Z,1013.48
2017-09-02T05:45:39.696Z,1013.46
2017-09-02T05:46:20.225Z,1013.48
2017-09-02T05:47:00.759Z,1013.47
2017-09-02T05:47:41.292Z,1013.46
2017-09-02T05:48:21.827Z,1013.48
2017-09-02T05:49:02.369Z,1013.49
2017-09-02T05:49:42.909Z,1013.49
2017-09-02T05:50:23.447Z,1013.51
2017-09-02T05:51:03.980Z,1013.51
2017-09-02T05:51:44.679Z,1013.51
2017-09-02T05:52:25.443Z,1013.51
2017-09-02T05:53:05.994Z,1013.55
2017-09-02T05:53:46.534Z,1013.52
2017-09-02T05:54:27.072Z,1013.53
2017-09-02T05:55:07.606Z,1013.56
2017-09-02T05:55:48.156Z,1013.55
2017-09-02T05:56:28.685Z,1013.53
2017-09-02T05:57:09.213Z,1013.51
2017-09-02T05:57:49.758Z,1013.5
2017-09-02T05:58:30.290Z,1013.54
2017-09-02T05:59:10.820Z,1013.51
2017-09-02T05:59:51.365Z,1013.56
2017-09-02T06:00:31.897Z,1013.59
2017-09-02T06:01:12.429Z,1013.56
2017-09-02T06:01:52.960Z,1013.58
2017-09-02T06:02:33.490Z,1013.59
2017-09-02T06:03:14.015Z,1013.61
2017-09-02T06:03:54.548Z,1013.62
2017-09-02T06:04:35.067Z,1013.61
2017-09-02T06:05:15.612Z,1013.6
2017-09-02T06:05:56.143Z,1013.62
2017-09-02T06:06:37.458Z,1013.63
2017-09-02T06:07:17.905Z,1013.64
2017-09-02T06:07:58.439Z,1013.66
2017-09-02T06:08:38.973Z,1013.66
2017-09-02T06:09:19.510Z,1013.66
2017-09-02T06:10:00.039Z,1013.63
2017-09-02T06:10:40.549Z,1013.62
2017-09-02T06:11:21.089Z,1013.62
2017-09-02T06:12:01.636Z,1013.63
2017-09-02T06:12:42.165Z,1013.65
2017-09-02T06:13:22.685Z,1013.63
2017-09-02T06:14:03.209Z,1013.62
2017-09-02T06:14:43.735Z,1013.59
2017-09-02T06:15:24.277Z,1013.6
2017-09-02T06:16:04.819Z,1013.6
2017-09-02T06:16:45.355Z,1013.58
2017-09-02T06:17:25.905Z,1013.59
2017-09-02T06:18:06.456Z,1013.61
2017-09-02T06:18:46.990Z,1013.61
2017-09-02T06:19:27.561Z,1013.59
2017-09-02T06:20:08.106Z,1013.61
2017-09-02T06:20:48.635Z,1013.59
2017-09-02T06:21:29.167Z,1013.61
2017-09-02T06:22:09.709Z,1013.64
2017-09-02T06:22:50.245Z,1013.66
2017-09-02T06:23:30.794Z,1013.66
2017-09-02T06:24:11.319Z,1013.66
2017-09-02T06:24:51.856Z,1013.65
2017-09-02T06:25:32.364Z,1013.66
2017-09-02T06:26:13.158Z,1013.64
2017-09-02T06:26:54.359Z,1013.63
2017-09-02T06:27:35.034Z,1013.65
2017-09-02T06:28:15.532Z,1013.67
2017-09-02T06:28:56.081Z,1013.65
2017-09-02T06:29:36.596Z,1013.66
2017-09-02T06:30:17.186Z,1013.66
2017-09-02T06:30:57.720Z,1013.69
2017-09-02T06:31:38.242Z,1013.69
2017-09-02T06:32:18.787Z,1013.68
2017-09-02T06:32:59.314Z,1013.68
2017-09-02T06:33:39.859Z,1013.68
2017-09-02T06:34:20.414Z,1013.7
2017-09-02T06:35:00.944Z,1013.66
2017-09-02T06:35:41.462Z,1013.66
2017-09-02T06:36:21.989Z,1013.65
2017-09-02T06:37:02.515Z,1013.66
2017-09-02T06:37:43.058Z,1013.66
2017-09-02T06:38:23.586Z,1013.69
2017-09-02T06:39:04.106Z,1013.66
2017-09-02T06:39:44.634Z,1013.67
2017-09-02T06:40:25.162Z,1013.67
2017-09-02T06:41:05.701Z,1013.65
2017-09-02T06:41:46.232Z,1013.71
2017-09-02T06:42:26.757Z,1013.67
2017-09-02T06:43:07.287Z,1013.65
2017-09-02T06:43:47.844Z,1013.61
2017-09-02T06:44:28.385Z,1013.65
2017-09-02T06:45:08.914Z,1013.62
2017-09-02T06:45:49.552Z,1013.61
2017-09-02T06:46:30.237Z,1013.58
2017-09-02T06:47:10.783Z,1013.65
2017-09-02T06:47:51.309Z,1013.64
2017-09-02T06:48:31.872Z,1013.68
2017-09-02T06:49:12.492Z,1013.68
2017-09-02T06:49:53.114Z,1013.64
2017-09-02T06:50:35.613Z,1013.7
2017-09-02T06:51:16.836Z,1013.69
2017-09-02T06:51:57.857Z,1013.66
2017-09-02T06:52:39.253Z,1013.69
2017-09-02T06:53:20.241Z,1013.67
2017-09-02T06:54:00.546Z,1013.68
2017-09-02T06:54:41.191Z,1013.67
2017-09-02T06:55:22.701Z,1013.67
2017-09-02T06:56:03.445Z,1013.72
2017-09-02T06:56:43.981Z,1013.68
2017-09-02T06:57:25.307Z,1013.65
2017-09-02T06:58:05.964Z,1013.66
2017-09-02T06:58:47.008Z,1013.69
2017-09-02T06:59:27.718Z,1013.67
2017-09-02T07:00:08.295Z,1013.68
2017-09-02T07:00:49.171Z,1013.68
2017-09-02T07:01:30.007Z,1013.64
2017-09-02T07:02:10.724Z,1013.66
2017-09-02T07:02:51.454Z,1013.68
2017-09-02T07:03:32.699Z,1013.67
2017-09-02T07:04:13.745Z,1013.64
2017-09-02T07:04:54.250Z,1013.66
2017-09-02T07:05:35.550Z,1013.66
2017-09-02T07:06:16.446Z,1013.66
2017-09-02T07:06:56.922Z,1013.7
2017-09-02T07:07:37.471Z,1013.69
2017-09-02T07:08:17.984Z,1013.71
2017-09-02T07:08:59.674Z,1013.71
2017-09-02T07:09:40.208Z,1013.7
2017-09-02T07:10:20.987Z,1013.74
2017-09-02T07:11:01.937Z,1013.72
2017-09-02T07:11:42.500Z,1013.76
2017-09-02T07:12:23.324Z,1013.74
2017-09-02T07:13:04.074Z,1013.75
2017-09-02T07:13:45.528Z,1013.76
2017-09-02T07:14:26.705Z,1013.78
2017-09-02T07:15:07.503Z,1013.77
2017-09-02T07:15:48.558Z,1013.8
2017-09-02T07:16:29.083Z,1013.77
2017-09-02T07:17:10.292Z,1013.8
2017-09-02T07:17:50.827Z,1013.83
2017-09-02T07:18:31.359Z,1013.83
2017-09-02T07:19:12.075Z,1013.84
2017-09-02T07:19:52.611Z,1013.86
2017-09-02T07:20:33.173Z,1013.82
2017-09-02T07:21:15.376Z,1013.85
2017-09-02T07:21:55.912Z,1013.85
2017-09-02T07:22:36.668Z,1013.84
2017-09-02T07:23:17.214Z,1013.84
2017-09-02T07:23:58.623Z,1013.88
2017-09-02T07:24:39.167Z,1013.83
2017-09-02T07:25:19.913Z,1013.88
2017-09-02T07:26:01.483Z,1013.89
2017-09-02T07:26:42.162Z,1013.94
2017-09-02T07:27:22.924Z,1013.94
2017-09-02T07:28:03.465Z,1013.94
2017-09-02T07:28:44.142Z,1013.87
2017-09-02T07:29:26.215Z,1013.95
2017-09-02T07:30:06.883Z,1013.92
2017-09-02T07:30:47.601Z,1013.96
2017-09-02T07:31:28.115Z,1013.96
2017-09-02T07:32:08.731Z,1013.94
2017-09-02T07:32:49.353Z,1013.95
2017-09-02T07:33:29.953Z,1013.95
2017-09-02T07:34:10.618Z,1013.95
2017-09-02T07:34:51.370Z,1013.99
2017-09-02T07:35:31.970Z,1013.98
2017-09-02T07:36:12.689Z,1014.01
2017-09-02T07:36:53.292Z,1014
2017-09-02T07:37:33.823Z,1014.01
2017-09-02T07:38:14.368Z,1014.03
2017-09-02T07:38:54.950Z,1014.03
2017-09-02T07:39:35.492Z,1014.04
2017-09-02T07:40:16.051Z,1014.05
2017-09-02T07:40:56.641Z,1014.05
2017-09-02T07:41:37.278Z,1014.06
2017-09-02T07:42:17.903Z,1014.07
2017-09-02T07:42:58.435Z,1014.08
2017-09-02T07:43:39.850Z,1014.06
2017-09-02T07:44:20.508Z,1014.09
2017-09-02T07:45:01.135Z,1014.11
2017-09-02T07:45:41.710Z,1014.12
2017-09-02T07:46:22.514Z,1014.09
2017-09-02T07:47:03.674Z,1014.12
2017-09-02T07:49:23.502Z,1014.13
2017-09-02T07:50:03.999Z,1014.14
2017-09-02T07:50:44.534Z,1014.16
2017-09-02T07:51:25.079Z,1014.15
2017-09-02T07:52:05.711Z,1014.18
2017-09-02T07:52:46.193Z,1014.21
2017-09-02T07:53:26.793Z,1014.2
2017-09-02T07:54:07.803Z,1014.17
2017-09-02T07:54:48.651Z,1014.17
2017-09-02T07:55:29.184Z,1014.2
2017-09-02T07:56:09.723Z,1014.19
2017-09-02T07:56:50.261Z,1014.2
2017-09-02T07:57:30.798Z,1014.19
2017-09-02T07:58:11.335Z,1014.18
2017-09-02T07:58:51.873Z,1014.15
2017-09-02T07:59:32.407Z,1014.12
2017-09-02T08:00:12.956Z,1014.16
2017-09-02T08:00:53.492Z,1014.16
2017-09-02T08:01:34.073Z,1014.17
2017-09-02T08:02:14.646Z,1014.12
2017-09-02T08:02:55.162Z,1014.12
2017-09-02T08:03:35.699Z,1014.13
2017-09-02T08:04:16.241Z,1014.17
2017-09-02T08:04:56.775Z,1014.09
2017-09-02T08:05:37.494Z,1014.12
2017-09-02T08:06:18.021Z,1014.14
2017-09-02T08:06:58.569Z,1014.09
2017-09-02T08:07:39.084Z,1014.11
2017-09-02T08:08:34.702Z,1014.14
2017-09-02T08:09:15.587Z,1014.11
2017-09-02T08:09:56.123Z,1014.15
2017-09-02T08:10:36.667Z,1014.17
2017-09-02T08:11:17.191Z,1014.15
2017-09-02T08:11:57.739Z,1014.17
2017-09-02T08:12:38.306Z,1014.17
2017-09-02T08:13:19.361Z,1014.2
2017-09-02T08:13:59.890Z,1014.19